sensor_id;sensor_type;location;lat;lon;timestamp;pressure;altitude;pressure_sealevel;temperature;humidity
68758;BME280;55747;51.998;4.466;2023-02-11T00:01:41;56628.78;;;-144.48;98.65
68758;BME280;55747;51.998;4.466;2023-02-11T00:04:06;56647.38;;;-144.48;98.76
68758;BME280;55747;51.998;4.466;2023-02-11T00:06:33;56641.19;;;-144.48;98.73
68758;BME280;55747;51.998;4.466;2023-02-11T00:08:59;56637.03;;;-144.48;98.92
68758;BME280;55747;51.998;4.466;2023-02-11T00:11:26;56653.59;;;-144.48;98.84
68758;BME280;55747;51.998;4.466;2023-02-11T00:14:01;56666.00;;;-144.48;99.08
68758;BME280;55747;51.998;4.466;2023-02-11T00:16:27;56641.19;;;-144.48;99.03
68758;BME280;55747;51.998;4.466;2023-02-11T00:18:52;56678.41;;;-144.48;99.03
68758;BME280;55747;51.998;4.466;2023-02-11T00:21:23;56666.00;;;-144.48;98.77
68758;BME280;55747;51.998;4.466;2023-02-11T00:23:50;56643.25;;;-144.48;98.83
68758;BME280;55747;51.998;4.466;2023-02-11T00:26:39;56659.78;;;-144.48;98.68
68758;BME280;55747;51.998;4.466;2023-02-11T00:29:05;56653.59;;;-144.48;98.36
68758;BME280;55747;51.998;4.466;2023-02-11T00:31:30;56626.72;;;-144.48;98.27
68758;BME280;55747;51.998;4.466;2023-02-11T00:33:56;56626.72;;;-144.48;98.21
68758;BME280;55747;51.998;4.466;2023-02-11T00:36:23;56670.13;;;-144.48;98.04
68758;BME280;55747;51.998;4.466;2023-02-11T00:38:50;56628.78;;;-144.48;97.83
68758;BME280;55747;51.998;4.466;2023-02-11T00:41:16;56608.09;;;-144.48;97.30
68758;BME280;55747;51.998;4.466;2023-02-11T00:43:42;56637.03;;;-144.48;97.07
68758;BME280;55747;51.998;4.466;2023-02-11T00:46:08;56674.25;;;-144.48;96.79
68758;BME280;55747;51.998;4.466;2023-02-11T00:48:34;56647.38;;;-144.48;97.11
68758;BME280;55747;51.998;4.466;2023-02-11T00:51:00;56641.19;;;-144.48;97.03
68758;BME280;55747;51.998;4.466;2023-02-11T00:53:29;56614.31;;;-144.48;96.77
68758;BME280;55747;51.998;4.466;2023-02-11T00:55:54;56659.78;;;-144.48;96.99
68758;BME280;55747;51.998;4.466;2023-02-11T00:58:20;56668.06;;;-144.48;97.10
68758;BME280;55747;51.998;4.466;2023-02-11T01:00:46;56657.72;;;-144.48;97.12
68758;BME280;55747;51.998;4.466;2023-02-11T01:03:12;56659.78;;;-144.48;97.04
68758;BME280;55747;51.998;4.466;2023-02-11T01:05:37;56647.38;;;-144.48;97.27
68758;BME280;55747;51.998;4.466;2023-02-11T01:08:02;56672.19;;;-144.48;97.27
68758;BME280;55747;51.998;4.466;2023-02-11T01:10:28;56668.06;;;-144.48;97.34
68758;BME280;55747;51.998;4.466;2023-02-11T01:12:54;56653.59;;;-144.48;97.44
68758;BME280;55747;51.998;4.466;2023-02-11T01:15:20;56647.38;;;-144.48;97.39
68758;BME280;55747;51.998;4.466;2023-02-11T01:17:45;56655.66;;;-144.48;97.32
68758;BME280;55747;51.998;4.466;2023-02-11T01:20:19;56639.13;;;-144.48;97.36
68758;BME280;55747;51.998;4.466;2023-02-11T01:22:45;56637.03;;;-144.48;97.65
68758;BME280;55747;51.998;4.466;2023-02-11T01:25:10;56661.84;;;-144.48;97.73
68758;BME280;55747;51.998;4.466;2023-02-11T01:27:36;56674.25;;;-144.48;97.78
68758;BME280;55747;51.998;4.466;2023-02-11T01:30:04;56610.16;;;-144.48;98.18
68758;BME280;55747;51.998;4.466;2023-02-11T01:32:33;56668.06;;;-144.48;98.41
68758;BME280;55747;51.998;4.466;2023-02-11T01:34:59;56666.00;;;-144.48;98.14
68758;BME280;55747;51.998;4.466;2023-02-11T01:37:24;56653.59;;;-144.48;98.76
68758;BME280;55747;51.998;4.466;2023-02-11T01:39:49;56628.78;;;-144.48;99.13
68758;BME280;55747;51.998;4.466;2023-02-11T01:42:17;56655.66;;;-144.48;99.48
68758;BME280;55747;51.998;4.466;2023-02-11T01:44:43;56610.16;;;-144.48;99.70
68758;BME280;55747;51.998;4.466;2023-02-11T01:47:08;56651.50;;;-144.48;100.00
68758;BME280;55747;51.998;4.466;2023-02-11T01:49:56;56663.91;;;-144.48;100.00
68758;BME280;55747;51.998;4.466;2023-02-11T01:52:38;56657.72;;;-144.48;100.00
68758;BME280;55747;51.998;4.466;2023-02-11T01:55:09;56653.59;;;-144.48;100.00
68758;BME280;55747;51.998;4.466;2023-02-11T01:58:00;56626.72;;;-144.48;100.00
68758;BME280;55747;51.998;4.466;2023-02-11T02:00:36;56643.25;;;-144.48;100.00
68758;BME280;55747;51.998;4.466;2023-02-11T02:03:17;56639.13;;;-144.48;100.00
68758;BME280;55747;51.998;4.466;2023-02-11T02:05:49;56632.91;;;-144.48;100.00
68758;BME280;55747;51.998;4.466;2023-02-11T02:10:59;56663.91;;;-144.48;100.00
68758;BME280;55747;51.998;4.466;2023-02-11T02:13:27;56653.59;;;-144.48;100.00
68758;BME280;55747;51.998;4.466;2023-02-11T02:15:58;56626.72;;;-144.48;100.00
68758;BME280;55747;51.998;4.466;2023-02-11T02:21:04;56655.66;;;-144.48;100.00
68758;BME280;55747;51.998;4.466;2023-02-11T02:26:38;56666.00;;;-144.48;100.00
68758;BME280;55747;51.998;4.466;2023-02-11T02:32:29;56659.78;;;-144.48;100.00
68758;BME280;55747;51.998;4.466;2023-02-11T02:35:14;56649.44;;;-144.48;100.00
68758;BME280;55747;51.998;4.466;2023-02-11T02:37:55;56663.91;;;-144.48;100.00
68758;BME280;55747;51.998;4.466;2023-02-11T02:40:28;56628.78;;;-144.48;100.00
68758;BME280;55747;51.998;4.466;2023-02-11T02:42:56;56620.50;;;-144.48;100.00
68758;BME280;55747;51.998;4.466;2023-02-11T02:45:22;56668.06;;;-144.48;100.00
68758;BME280;55747;51.998;4.466;2023-02-11T02:47:48;56647.38;;;-144.48;100.00
68758;BME280;55747;51.998;4.466;2023-02-11T02:50:16;56639.13;;;-144.48;100.00
68758;BME280;55747;51.998;4.466;2023-02-11T02:53:17;56659.78;;;-144.48;100.00
68758;BME280;55747;51.998;4.466;2023-02-11T02:56:01;56643.25;;;-144.48;100.00
68758;BME280;55747;51.998;4.466;2023-02-11T02:58:48;56616.38;;;-144.48;100.00
68758;BME280;55747;51.998;4.466;2023-02-11T03:04:30;56643.25;;;-144.48;100.00
68758;BME280;55747;51.998;4.466;2023-02-11T03:07:11;56643.25;;;-144.48;100.00
68758;BME280;55747;51.998;4.466;2023-02-11T03:09:52;56659.78;;;-144.48;100.00
68758;BME280;55747;51.998;4.466;2023-02-11T03:12:20;56630.84;;;-144.48;100.00
68758;BME280;55747;51.998;4.466;2023-02-11T03:14:48;56639.13;;;-144.48;100.00
68758;BME280;55747;51.998;4.466;2023-02-11T03:17:15;56682.53;;;-144.48;100.00
68758;BME280;55747;51.998;4.466;2023-02-11T03:19:45;56651.50;;;-144.48;100.00
68758;BME280;55747;51.998;4.466;2023-02-11T03:22:16;56661.84;;;-144.48;100.00
68758;BME280;55747;51.998;4.466;2023-02-11T03:24:43;56651.50;;;-144.48;100.00
68758;BME280;55747;51.998;4.466;2023-02-11T03:27:30;56666.00;;;-144.48;100.00
68758;BME280;55747;51.998;4.466;2023-02-11T03:30:06;56657.72;;;-144.48;100.00
68758;BME280;55747;51.998;4.466;2023-02-11T03:32:37;56666.00;;;-144.48;100.00
68758;BME280;55747;51.998;4.466;2023-02-11T03:35:14;56666.00;;;-144.48;100.00
68758;BME280;55747;51.998;4.466;2023-02-11T03:37:44;56612.22;;;-144.48;100.00
68758;BME280;55747;51.998;4.466;2023-02-11T03:40:18;56666.00;;;-144.48;100.00
68758;BME280;55747;51.998;4.466;2023-02-11T03:42:57;56670.13;;;-144.48;100.00
68758;BME280;55747;51.998;4.466;2023-02-11T03:45:24;56694.94;;;-144.48;100.00
68758;BME280;55747;51.998;4.466;2023-02-11T03:47:55;56639.13;;;-144.48;100.00
68758;BME280;55747;51.998;4.466;2023-02-11T03:50:25;56682.53;;;-144.48;100.00
68758;BME280;55747;51.998;4.466;2023-02-11T03:52:53;56620.50;;;-144.48;100.00
68758;BME280;55747;51.998;4.466;2023-02-11T03:55:22;56670.13;;;-144.48;100.00
68758;BME280;55747;51.998;4.466;2023-02-11T03:57:50;56651.50;;;-144.48;100.00
68758;BME280;55747;51.998;4.466;2023-02-11T04:00:15;56655.66;;;-144.48;100.00
68758;BME280;55747;51.998;4.466;2023-02-11T04:02:41;56659.78;;;-144.48;100.00
68758;BME280;55747;51.998;4.466;2023-02-11T04:05:09;56639.13;;;-144.48;100.00
68758;BME280;55747;51.998;4.466;2023-02-11T04:07:35;56645.31;;;-144.48;100.00
68758;BME280;55747;51.998;4.466;2023-02-11T04:10:00;56655.66;;;-144.48;100.00
68758;BME280;55747;51.998;4.466;2023-02-11T04:12:25;56670.13;;;-144.48;100.00
68758;BME280;55747;51.998;4.466;2023-02-11T04:14:51;56690.81;;;-144.48;100.00
68758;BME280;55747;51.998;4.466;2023-02-11T04:17:17;56655.66;;;-144.48;100.00
68758;BME280;55747;51.998;4.466;2023-02-11T04:19:42;56672.19;;;-144.48;100.00
68758;BME280;55747;51.998;4.466;2023-02-11T04:22:08;56630.84;;;-144.48;100.00
68758;BME280;55747;51.998;4.466;2023-02-11T04:24:33;56666.00;;;-144.48;100.00
68758;BME280;55747;51.998;4.466;2023-02-11T04:26:59;56663.91;;;-144.48;100.00
68758;BME280;55747;51.998;4.466;2023-02-11T04:29:24;56659.78;;;-144.48;100.00
68758;BME280;55747;51.998;4.466;2023-02-11T04:31:50;56616.38;;;-144.48;100.00
68758;BME280;55747;51.998;4.466;2023-02-11T04:34:15;56612.22;;;-144.48;100.00
68758;BME280;55747;51.998;4.466;2023-02-11T04:36:41;56624.63;;;-144.48;100.00
68758;BME280;55747;51.998;4.466;2023-02-11T04:39:06;56678.41;;;-144.48;100.00
68758;BME280;55747;51.998;4.466;2023-02-11T04:41:32;56651.50;;;-144.48;100.00
68758;BME280;55747;51.998;4.466;2023-02-11T04:44:01;56657.72;;;-144.48;100.00
68758;BME280;55747;51.998;4.466;2023-02-11T04:46:29;56655.66;;;-144.48;100.00
68758;BME280;55747;51.998;4.466;2023-02-11T04:48:56;56649.44;;;-144.48;100.00
68758;BME280;55747;51.998;4.466;2023-02-11T04:51:34;56647.38;;;-144.48;100.00
68758;BME280;55747;51.998;4.466;2023-02-11T04:54:18;56655.66;;;-144.48;100.00
68758;BME280;55747;51.998;4.466;2023-02-11T04:56:47;56657.72;;;-144.48;100.00
68758;BME280;55747;51.998;4.466;2023-02-11T04:59:23;56628.78;;;-144.48;100.00
68758;BME280;55747;51.998;4.466;2023-02-11T05:01:51;56663.91;;;-144.48;100.00
68758;BME280;55747;51.998;4.466;2023-02-11T05:04:21;56655.66;;;-144.48;100.00
68758;BME280;55747;51.998;4.466;2023-02-11T05:06:47;56610.16;;;-144.48;100.00
68758;BME280;55747;51.998;4.466;2023-02-11T05:09:13;56668.06;;;-144.48;100.00
68758;BME280;55747;51.998;4.466;2023-02-11T05:11:52;56703.19;;;-144.48;100.00
68758;BME280;55747;51.998;4.466;2023-02-11T05:14:26;56719.75;;;-144.48;100.00
68758;BME280;55747;51.998;4.466;2023-02-11T05:16:54;56676.31;;;-144.48;100.00
68758;BME280;55747;51.998;4.466;2023-02-11T05:19:29;56649.44;;;-144.48;100.00
68758;BME280;55747;51.998;4.466;2023-02-11T05:22:04;56672.19;;;-144.48;100.00
68758;BME280;55747;51.998;4.466;2023-02-11T05:24:46;56657.72;;;-144.48;100.00
68758;BME280;55747;51.998;4.466;2023-02-11T05:27:14;56634.97;;;-144.48;100.00
68758;BME280;55747;51.998;4.466;2023-02-11T05:29:40;56661.84;;;-144.48;100.00
68758;BME280;55747;51.998;4.466;2023-02-11T05:32:11;56661.84;;;-144.48;100.00
68758;BME280;55747;51.998;4.466;2023-02-11T05:34:39;56653.59;;;-144.48;100.00
68758;BME280;55747;51.998;4.466;2023-02-11T05:37:04;56680.47;;;-144.48;100.00
68758;BME280;55747;51.998;4.466;2023-02-11T05:39:38;56641.19;;;-144.48;100.00
68758;BME280;55747;51.998;4.466;2023-02-11T05:42:04;56663.91;;;-144.48;100.00
68758;BME280;55747;51.998;4.466;2023-02-11T05:44:29;56674.25;;;-144.48;100.00
68758;BME280;55747;51.998;4.466;2023-02-11T05:46:58;56682.53;;;-144.48;100.00
68758;BME280;55747;51.998;4.466;2023-02-11T05:49:23;56651.50;;;-144.48;100.00
68758;BME280;55747;51.998;4.466;2023-02-11T05:52:18;56666.00;;;-144.48;100.00
68758;BME280;55747;51.998;4.466;2023-02-11T05:54:46;56674.25;;;-144.48;100.00
68758;BME280;55747;51.998;4.466;2023-02-11T05:57:14;56647.38;;;-144.48;100.00
68758;BME280;55747;51.998;4.466;2023-02-11T05:59:56;56680.47;;;-144.48;100.00
68758;BME280;55747;51.998;4.466;2023-02-11T06:02:33;56657.72;;;-144.48;100.00
68758;BME280;55747;51.998;4.466;2023-02-11T06:05:04;56651.50;;;-144.48;100.00
68758;BME280;55747;51.998;4.466;2023-02-11T06:07:29;56651.50;;;-144.48;100.00
68758;BME280;55747;51.998;4.466;2023-02-11T06:09:58;56655.66;;;-144.48;100.00
68758;BME280;55747;51.998;4.466;2023-02-11T06:12:24;56632.91;;;-144.48;100.00
68758;BME280;55747;51.998;4.466;2023-02-11T06:14:49;56663.91;;;-144.48;100.00
68758;BME280;55747;51.998;4.466;2023-02-11T06:17:22;56670.13;;;-144.48;100.00
68758;BME280;55747;51.998;4.466;2023-02-11T06:20:11;56670.13;;;-144.48;100.00
68758;BME280;55747;51.998;4.466;2023-02-11T06:22:48;56653.59;;;-144.48;100.00
68758;BME280;55747;51.998;4.466;2023-02-11T06:25:24;56682.53;;;-144.48;100.00
68758;BME280;55747;51.998;4.466;2023-02-11T06:28:21;56670.13;;;-144.48;100.00
68758;BME280;55747;51.998;4.466;2023-02-11T06:31:06;56651.50;;;-144.48;100.00
68758;BME280;55747;51.998;4.466;2023-02-11T06:33:40;56661.84;;;-144.48;100.00
68758;BME280;55747;51.998;4.466;2023-02-11T06:36:22;56670.13;;;-144.48;100.00
68758;BME280;55747;51.998;4.466;2023-02-11T06:38:50;56649.44;;;-144.48;100.00
68758;BME280;55747;51.998;4.466;2023-02-11T06:41:41;56626.72;;;-144.48;100.00
68758;BME280;55747;51.998;4.466;2023-02-11T06:44:29;56639.13;;;-144.48;100.00
68758;BME280;55747;51.998;4.466;2023-02-11T06:50:30;56649.44;;;-144.48;100.00
68758;BME280;55747;51.998;4.466;2023-02-11T06:56:42;56661.84;;;-144.48;100.00
68758;BME280;55747;51.998;4.466;2023-02-11T06:59:21;56670.13;;;-144.48;100.00
68758;BME280;55747;51.998;4.466;2023-02-11T07:02:12;56653.59;;;-144.48;100.00
68758;BME280;55747;51.998;4.466;2023-02-11T07:11:56;56688.72;;;-144.48;100.00
68758;BME280;55747;51.998;4.466;2023-02-11T07:14:51;56655.66;;;-144.48;100.00
68758;BME280;55747;51.998;4.466;2023-02-11T07:17:17;56651.50;;;-144.48;100.00
68758;BME280;55747;51.998;4.466;2023-02-11T07:27:20;56668.06;;;-144.48;100.00
68758;BME280;55747;51.998;4.466;2023-02-11T07:29:48;56653.59;;;-144.48;100.00
68758;BME280;55747;51.998;4.466;2023-02-11T07:32:19;56628.78;;;-144.48;100.00
68758;BME280;55747;51.998;4.466;2023-02-11T07:34:59;56641.19;;;-144.48;100.00
68758;BME280;55747;51.998;4.466;2023-02-11T09:56:27;56692.88;;;-144.48;100.00
68758;BME280;55747;51.998;4.466;2023-02-11T10:46:41;56699.06;;;-144.48;94.21
68758;BME280;55747;51.998;4.466;2023-02-11T10:52:40;56688.72;;;-144.48;94.21
68758;BME280;55747;51.998;4.466;2023-02-11T11:59:25;56686.66;;;-144.48;93.08
68758;BME280;55747;51.998;4.466;2023-02-11T12:35:05;56686.66;;;-144.48;91.72
68758;BME280;55747;51.998;4.466;2023-02-11T12:38:17;56653.59;;;-144.48;91.08
68758;BME280;55747;51.998;4.466;2023-02-11T13:05:04;56659.78;;;-144.48;87.15
68758;BME280;55747;51.998;4.466;2023-02-11T13:12:00;56672.19;;;-144.48;85.13
68758;BME280;55747;51.998;4.466;2023-02-11T13:15:05;56661.84;;;-144.48;84.85
68758;BME280;55747;51.998;4.466;2023-02-11T13:28:19;56680.47;;;-144.48;86.27
68758;BME280;55747;51.998;4.466;2023-02-11T13:44:25;56653.59;;;-144.48;83.41
68758;BME280;55747;51.998;4.466;2023-02-11T14:35:21;56651.50;;;-144.48;83.88
68758;BME280;55747;51.998;4.466;2023-02-11T15:39:40;56666.00;;;-144.48;85.73
68758;BME280;55747;51.998;4.466;2023-02-11T15:42:30;56666.00;;;-144.48;86.73
68758;BME280;55747;51.998;4.466;2023-02-11T15:45:43;56655.66;;;-144.48;87.04
68758;BME280;55747;51.998;4.466;2023-02-11T15:51:54;56676.31;;;-144.48;87.26
68758;BME280;55747;51.998;4.466;2023-02-11T16:10:54;56653.59;;;-144.48;87.79
68758;BME280;55747;51.998;4.466;2023-02-11T16:13:44;56666.00;;;-144.48;88.33
68758;BME280;55747;51.998;4.466;2023-02-11T16:16:42;56645.31;;;-144.48;88.07
68758;BME280;55747;51.998;4.466;2023-02-11T16:19:25;56661.84;;;-144.48;88.23
68758;BME280;55747;51.998;4.466;2023-02-11T16:22:09;56663.91;;;-144.48;88.46
68758;BME280;55747;51.998;4.466;2023-02-11T16:25:20;56649.44;;;-144.48;88.50
68758;BME280;55747;51.998;4.466;2023-02-11T16:28:13;56655.66;;;-144.48;88.57
68758;BME280;55747;51.998;4.466;2023-02-11T16:33:47;56682.53;;;-144.48;89.01
68758;BME280;55747;51.998;4.466;2023-02-11T16:36:16;56645.31;;;-144.48;89.14
68758;BME280;55747;51.998;4.466;2023-02-11T16:39:00;56678.41;;;-144.48;89.55
68758;BME280;55747;51.998;4.466;2023-02-11T16:41:56;56647.38;;;-144.48;89.76
68758;BME280;55747;51.998;4.466;2023-02-11T16:44:41;56645.31;;;-144.48;89.92
68758;BME280;55747;51.998;4.466;2023-02-11T16:47:53;56659.78;;;-144.48;89.44
68758;BME280;55747;51.998;4.466;2023-02-11T16:54:00;56630.84;;;-144.48;90.07
68758;BME280;55747;51.998;4.466;2023-02-11T16:56:56;56670.13;;;-144.48;90.53
68758;BME280;55747;51.998;4.466;2023-02-11T17:00:05;56647.38;;;-144.48;90.57
68758;BME280;55747;51.998;4.466;2023-02-11T17:05:53;56649.44;;;-144.48;91.32
68758;BME280;55747;51.998;4.466;2023-02-11T17:12:49;56628.78;;;-144.48;91.69
68758;BME280;55747;51.998;4.466;2023-02-11T17:16:14;56624.63;;;-144.48;92.30
68758;BME280;55747;51.998;4.466;2023-02-11T18:28:11;56639.13;;;-144.48;93.61
68758;BME280;55747;51.998;4.466;2023-02-11T19:38:52;56622.56;;;-144.48;93.74
68758;BME280;55747;51.998;4.466;2023-02-11T19:41:42;56692.88;;;-144.48;93.74
68758;BME280;55747;51.998;4.466;2023-02-11T19:51:58;56688.72;;;-144.48;93.89
68758;BME280;55747;51.998;4.466;2023-02-11T19:58:40;56616.38;;;-144.48;94.21
68758;BME280;55747;51.998;4.466;2023-02-11T20:01:17;56608.09;;;-144.48;94.10
68758;BME280;55747;51.998;4.466;2023-02-11T20:03:53;56680.47;;;-144.48;93.96
68758;BME280;55747;51.998;4.466;2023-02-11T20:06:31;56651.50;;;-144.48;94.04
68758;BME280;55747;51.998;4.466;2023-02-11T20:12:03;56666.00;;;-144.48;93.91
68758;BME280;55747;51.998;4.466;2023-02-11T20:14:31;56659.78;;;-144.48;93.94
68758;BME280;55747;51.998;4.466;2023-02-11T20:17:19;56672.19;;;-144.48;93.74
68758;BME280;55747;51.998;4.466;2023-02-11T20:19:51;56647.38;;;-144.48;93.59
68758;BME280;55747;51.998;4.466;2023-02-11T20:22:51;56688.72;;;-144.48;93.62
68758;BME280;55747;51.998;4.466;2023-02-11T20:32:16;56674.25;;;-144.48;93.93
68758;BME280;55747;51.998;4.466;2023-02-11T20:35:14;56639.13;;;-144.48;94.02
68758;BME280;55747;51.998;4.466;2023-02-11T20:37:53;56701.13;;;-144.48;94.09
68758;BME280;55747;51.998;4.466;2023-02-11T20:44:51;56649.44;;;-144.48;94.44
68758;BME280;55747;51.998;4.466;2023-02-11T20:47:48;56637.03;;;-144.48;94.45
68758;BME280;55747;51.998;4.466;2023-02-11T20:50:25;56641.19;;;-144.48;94.39
68758;BME280;55747;51.998;4.466;2023-02-11T20:53:19;56666.00;;;-144.48;94.69
68758;BME280;55747;51.998;4.466;2023-02-11T20:56:22;56637.03;;;-144.48;94.34
68758;BME280;55747;51.998;4.466;2023-02-11T20:59:18;56666.00;;;-144.48;94.26
68758;BME280;55747;51.998;4.466;2023-02-11T21:05:27;56645.31;;;-144.48;94.18
68758;BME280;55747;51.998;4.466;2023-02-11T21:07:53;56676.31;;;-144.48;94.73
68758;BME280;55747;51.998;4.466;2023-02-11T21:10:24;56666.00;;;-144.48;94.52
68758;BME280;55747;51.998;4.466;2023-02-11T21:12:52;56641.19;;;-144.48;94.56
68758;BME280;55747;51.998;4.466;2023-02-11T21:15:30;56668.06;;;-144.48;94.39
68758;BME280;55747;51.998;4.466;2023-02-11T21:18:13;56659.78;;;-144.48;94.35
68758;BME280;55747;51.998;4.466;2023-02-11T21:20:47;56637.03;;;-144.48;94.46
68758;BME280;55747;51.998;4.466;2023-02-11T21:23:13;56657.72;;;-144.48;94.73
68758;BME280;55747;51.998;4.466;2023-02-11T21:26:14;56692.88;;;-144.48;95.00
68758;BME280;55747;51.998;4.466;2023-02-11T21:28:44;56657.72;;;-144.48;95.30
68758;BME280;55747;51.998;4.466;2023-02-11T21:31:20;56661.84;;;-144.48;95.33
68758;BME280;55747;51.998;4.466;2023-02-11T21:33:50;56637.03;;;-144.48;95.65
68758;BME280;55747;51.998;4.466;2023-02-11T21:36:24;56682.53;;;-144.48;95.94
68758;BME280;55747;51.998;4.466;2023-02-11T21:39:04;56709.41;;;-144.48;96.37
68758;BME280;55747;51.998;4.466;2023-02-11T21:42:02;56682.53;;;-144.48;96.87
68758;BME280;55747;51.998;4.466;2023-02-11T21:44:36;56699.06;;;-144.48;97.17
68758;BME280;55747;51.998;4.466;2023-02-11T21:47:30;56655.66;;;-144.48;97.01
68758;BME280;55747;51.998;4.466;2023-02-11T21:49:58;56688.72;;;-144.48;97.25
68758;BME280;55747;51.998;4.466;2023-02-11T21:52:24;56661.84;;;-144.48;97.41
68758;BME280;55747;51.998;4.466;2023-02-11T21:54:53;56674.25;;;-144.48;97.46
68758;BME280;55747;51.998;4.466;2023-02-11T21:57:21;56674.25;;;-144.48;97.58
68758;BME280;55747;51.998;4.466;2023-02-11T21:59:59;56684.59;;;-144.48;97.67
68758;BME280;55747;51.998;4.466;2023-02-11T22:02:50;56713.53;;;-144.48;97.75
68758;BME280;55747;51.998;4.466;2023-02-11T22:08:24;56672.19;;;-144.48;97.55
68758;BME280;55747;51.998;4.466;2023-02-11T22:10:51;56666.00;;;-144.48;97.49
68758;BME280;55747;51.998;4.466;2023-02-11T22:13:17;56643.25;;;-144.48;97.46
68758;BME280;55747;51.998;4.466;2023-02-11T22:15:42;56672.19;;;-144.48;97.39
68758;BME280;55747;51.998;4.466;2023-02-11T22:18:10;56684.59;;;-144.48;97.57
68758;BME280;55747;51.998;4.466;2023-02-11T22:20:38;56628.78;;;-144.48;97.49
68758;BME280;55747;51.998;4.466;2023-02-11T22:23:06;56676.31;;;-144.48;97.33
68758;BME280;55747;51.998;4.466;2023-02-11T22:25:35;56682.53;;;-144.48;97.46
68758;BME280;55747;51.998;4.466;2023-02-11T22:28:02;56699.06;;;-144.48;97.82
68758;BME280;55747;51.998;4.466;2023-02-11T22:30:27;56651.50;;;-144.48;97.88
68758;BME280;55747;51.998;4.466;2023-02-11T22:32:55;56709.41;;;-144.48;98.07
68758;BME280;55747;51.998;4.466;2023-02-11T22:35:23;56663.91;;;-144.48;97.99
68758;BME280;55747;51.998;4.466;2023-02-11T22:37:49;56657.72;;;-144.48;97.65
68758;BME280;55747;51.998;4.466;2023-02-11T22:40:17;56690.81;;;-144.48;97.79
68758;BME280;55747;51.998;4.466;2023-02-11T22:42:43;56678.41;;;-144.48;97.97
68758;BME280;55747;51.998;4.466;2023-02-11T22:45:08;56682.53;;;-144.48;98.09
68758;BME280;55747;51.998;4.466;2023-02-11T22:47:33;56709.41;;;-144.48;98.30
68758;BME280;55747;51.998;4.466;2023-02-11T22:50:00;56663.91;;;-144.48;98.66
68758;BME280;55747;51.998;4.466;2023-02-11T22:52:25;56670.13;;;-144.48;98.94
68758;BME280;55747;51.998;4.466;2023-02-11T22:54:52;56666.00;;;-144.48;99.12
68758;BME280;55747;51.998;4.466;2023-02-11T22:57:19;56647.38;;;-144.48;99.11
68758;BME280;55747;51.998;4.466;2023-02-11T22:59:44;56684.59;;;-144.48;99.19
68758;BME280;55747;51.998;4.466;2023-02-11T23:02:10;56701.13;;;-144.48;99.27
68758;BME280;55747;51.998;4.466;2023-02-11T23:04:38;56668.06;;;-144.48;99.16
68758;BME280;55747;51.998;4.466;2023-02-11T23:07:03;56690.81;;;-144.48;99.27
68758;BME280;55747;51.998;4.466;2023-02-11T23:09:29;56674.25;;;-144.48;99.24
68758;BME280;55747;51.998;4.466;2023-02-11T23:11:54;56682.53;;;-144.48;99.32
68758;BME280;55747;51.998;4.466;2023-02-11T23:14:19;56699.06;;;-144.48;99.10
68758;BME280;55747;51.998;4.466;2023-02-11T23:16:48;56663.91;;;-144.48;99.17
68758;BME280;55747;51.998;4.466;2023-02-11T23:19:14;56682.53;;;-144.48;99.02
68758;BME280;55747;51.998;4.466;2023-02-11T23:21:41;56680.47;;;-144.48;99.40
68758;BME280;55747;51.998;4.466;2023-02-11T23:24:10;56655.66;;;-144.48;99.35
68758;BME280;55747;51.998;4.466;2023-02-11T23:26:38;56688.72;;;-144.48;99.39
68758;BME280;55747;51.998;4.466;2023-02-11T23:29:04;56701.13;;;-144.48;99.34
68758;BME280;55747;51.998;4.466;2023-02-11T23:31:34;56663.91;;;-144.48;99.48
68758;BME280;55747;51.998;4.466;2023-02-11T23:34:02;56707.34;;;-144.48;99.63
68758;BME280;55747;51.998;4.466;2023-02-11T23:36:27;56668.06;;;-144.48;99.56
68758;BME280;55747;51.998;4.466;2023-02-11T23:38:53;56678.41;;;-144.48;99.35
68758;BME280;55747;51.998;4.466;2023-02-11T23:41:19;56690.81;;;-144.48;99.32
68758;BME280;55747;51.998;4.466;2023-02-11T23:43:51;56690.81;;;-144.48;99.42
68758;BME280;55747;51.998;4.466;2023-02-11T23:46:17;56663.91;;;-144.48;99.22
68758;BME280;55747;51.998;4.466;2023-02-11T23:48:43;56676.31;;;-144.48;99.06
68758;BME280;55747;51.998;4.466;2023-02-11T23:51:09;56692.88;;;-144.48;99.11
68758;BME280;55747;51.998;4.466;2023-02-11T23:53:40;56723.88;;;-144.48;99.24
68758;BME280;55747;51.998;4.466;2023-02-11T23:56:08;56670.13;;;-144.48;99.33
68758;BME280;55747;51.998;4.466;2023-02-11T23:58:34;56678.41;;;-144.48;99.30
